PROFILE

 METAR AND TAF INFORMATION
ADDS - METARS form results

(0614 UTC 22 September 2019)
http://aviationweather.gov/metar/data/
 
TJMZ 220540Z 2206/2306 VRB03KT P6SM FEW025 FM221330 VRB05KT P6SM FEW030 FM221600 25008KT P6SM VCTS SCT025CB BKN040 FM222200 07005KT P6SM FEW030 AMD NOT SKED 

 AIRPORT MAP

 RUNWAY INFORMATION
Runway 09 Runway length 4998 ft Runway width 100 ft
Runway elevation 28 ft Runway displaced threshold 0 ft Runway heading 76
Runway 27 Runway length 4998 ft Runway width 100 ft
Runway elevation 28 ft Runway displaced threshold 0 ft Runway heading 256

 AIRPORT FREQUENCIES
Type A/D Name SAN JUAN C Frequency 118.75 MHZ
Type CLD Name CLNC DEL Frequency 121.7 MHZ
Type RDO Name SAN JUAN R Frequency 110.6 MHZ
Type UNIC Name CTAF/UNICO Frequency 122.8 MHZ

 AIRPORT NEAR NAVIGATION AIDS
Type VOR-DME Name Mayaguez Frequency 110600 KHZ